Home   Weather   Azerbaijan   Sumqayit   Past weeks
Flag for Azerbaijan

Past Weather in Sumqayit, Azerbaijan — Yesterday and Last 2 Weeks

Currently: 82 °F. Passing clouds. (Weather station: Baku / Bine Airport, Azerbaijan). See more current weather

Past Weather in Sumqayit — Graph

°F

Sumqayit Temperature Yesterday

Maximum temperature yesterday: 91 °F (at 2:00 pm)
Minimum temperature yesterday: 70 °F (at 10:00 pm)
Average temperature yesterday: 81 °F

High & Low Weather Summary for the Past Weeks

 TemperatureHumidityPressure
High97 °F (Jun 17, 4:30 pm)94% (Jun 7, 10:00 pm)30.01 "Hg (Jun 7, 10:00 pm)
Low61 °F (Jun 7, 4:30 am)16% (Jun 17, 5:00 pm)29.68 "Hg (Jun 17, 2:30 pm)
Average76 °F64%29.85 "Hg
* Reported Jun 5 8:00 pm — Jun 20 8:00 pm, Sumqayit. Weather by CustomWeather, © 2021

Note: Actual official high and low records may vary slightly from our data, if they occured in-between our weather recording intervals... More about our weather records

Sumqayit Weather History for the Previous 24 Hours

Scroll right to see more
 ConditionsComfort  
Time TempWeatherWind HumidityBarometerVisibility
8:00 pm
Sun, Jun 20
82 °FPassing clouds.9 mph40%29.92 "HgN/A
7:30 pm82 °FPassing clouds.9 mph40%29.92 "HgN/A
7:00 pm84 °FPassing clouds.12 mph35%29.92 "HgN/A
6:30 pm86 °FPassing clouds.9 mph33%29.92 "HgN/A
6:00 pm86 °FSunny.12 mph33%29.92 "Hg10 mi
5:30 pm88 °FClear.14 mph31%29.89 "Hg5 mi
5:00 pm88 °FClear.14 mph29%29.89 "Hg4 mi
4:30 pm90 °FPassing clouds.16 mph29%29.89 "Hg4 mi
4:00 pm93 °FPassing clouds.16 mph21%29.89 "Hg4 mi
3:30 pm91 °FPassing clouds.18 mph23%29.92 "Hg4 mi
3:00 pm91 °FPassing clouds.18 mph23%29.92 "Hg4 mi
2:30 pm91 °FPassing clouds.21 mph23%29.92 "Hg4 mi
2:00 pm91 °FClear.21 mph23%29.92 "Hg4 mi
1:30 pm93 °FClear.21 mph24%29.92 "Hg4 mi
1:00 pm91 °FClear.21 mph26%29.92 "Hg4 mi
12:30 pm91 °FScattered clouds.18 mph28%29.95 "Hg4 mi
12:00 pm90 °FScattered clouds.18 mph31%29.95 "Hg4 mi
11:30 am91 °FScattered clouds.18 mph30%29.95 "Hg4 mi
11:00 am91 °FClear.18 mph32%29.92 "Hg4 mi
10:30 am91 °FClear.18 mph32%29.92 "Hg4 mi
10:00 am90 °FClear.18 mph33%29.92 "Hg5 mi
9:30 am86 °FSunny.16 mph43%29.95 "Hg10 mi
9:00 am86 °FSunny.12 mph43%29.95 "Hg10 mi
8:30 am86 °FSunny.14 mph43%29.95 "Hg10 mi
8:00 am82 °FSunny.7 mph55%29.95 "Hg10 mi
7:30 am77 °FSunny.7 mph79%29.92 "Hg10 mi
7:00 am75 °FSunny.9 mph83%29.92 "Hg10 mi
6:30 am73 °FSunny.7 mph89%29.92 "Hg10 mi
6:00 am70 °FSunny.9 mph94%29.92 "Hg10 mi
5:30 am68 °FSunny.9 mph94%29.92 "Hg10 mi
5:00 am66 °FClear.7 mph94%29.92 "Hg10 mi
4:30 am68 °FClear.5 mph88%29.92 "Hg10 mi
4:00 am68 °FClear.5 mph94%29.92 "Hg10 mi
3:30 am68 °FClear.7 mph94%29.92 "Hg10 mi
3:00 am70 °FClear.7 mph88%29.92 "Hg10 mi
2:30 am72 °FClear.7 mph88%29.89 "Hg10 mi
2:00 am72 °FClear.9 mph88%29.89 "Hg10 mi
1:30 am70 °FClear.7 mph94%29.89 "Hg10 mi
1:00 am70 °FClear.7 mph88%29.92 "Hg10 mi
12:30 am70 °FClear.7 mph88%29.92 "Hg10 mi
12:00 am70 °FClear.7 mph88%29.92 "Hg10 mi
11:30 pm
Sat, Jun 19
72 °FClear.7 mph88%29.92 "Hg10 mi
11:00 pm70 °FClear.5 mph88%29.92 "Hg10 mi
10:30 pm70 °FClear.7 mph88%29.92 "Hg10 mi
10:00 pm70 °FClear.7 mph88%29.92 "Hg10 mi
9:30 pm72 °FClear.7 mph88%29.92 "Hg10 mi
9:00 pm72 °FClear.9 mph83%29.92 "Hg10 mi
8:30 pm73 °FClear.9 mph78%29.92 "Hg10 mi
8:00 pm75 °FSunny.9 mph74%29.92 "Hg10 mi
Weather by CustomWeather, © 2021

See weather overview